createdAt,value
2022-08-03T00:01:12.879Z,24.60
2022-08-03T00:03:44.258Z,24.50
2022-08-03T00:06:12.905Z,24.60
2022-08-03T00:08:41.537Z,24.60
2022-08-03T00:11:12.238Z,24.50
2022-08-03T00:13:43.285Z,24.30
2022-08-03T00:16:16.168Z,24.20
2022-08-03T00:18:46.899Z,24.30
2022-08-03T00:21:16.969Z,24.20
2022-08-03T00:23:51.699Z,24.20
2022-08-03T00:26:26.119Z,24.30
2022-08-03T00:28:57.037Z,24.40
2022-08-03T00:31:51.526Z,24.40
2022-08-03T00:34:24.275Z,24.30
2022-08-03T00:37:06.696Z,24.40
2022-08-03T00:39:38.038Z,24.40
2022-08-03T00:42:12.173Z,24.40
2022-08-03T00:44:44.942Z,24.40
2022-08-03T00:47:15.990Z,24.40
2022-08-03T00:49:43.620Z,24.40
2022-08-03T00:52:18.296Z,24.40
2022-08-03T00:54:48.994Z,24.40
2022-08-03T00:57:21.386Z,24.30
2022-08-03T00:59:49.112Z,24.30
2022-08-03T01:02:20.072Z,24.10
2022-08-03T01:04:50.052Z,24.00
2022-08-03T01:07:58.609Z,23.90
2022-08-03T01:10:53.484Z,24.00
2022-08-03T01:13:59.882Z,24.00
2022-08-03T01:17:23.370Z,24.00
2022-08-03T01:20:13.728Z,23.80
2022-08-03T01:23:09.121Z,23.70
2022-08-03T01:26:08.852Z,23.80
2022-08-03T01:29:10.499Z,23.90
2022-08-03T01:33:02.381Z,23.90
2022-08-03T01:35:18.400Z,24.00
2022-08-03T01:37:56.997Z,23.80
2022-08-03T01:40:28.863Z,23.80
2022-08-03T01:43:55.267Z,23.90
2022-08-03T01:46:09.714Z,23.90
2022-08-03T01:48:48.198Z,23.90
2022-08-03T01:51:19.377Z,23.80
2022-08-03T01:53:51.465Z,23.90
2022-08-03T01:56:22.487Z,23.90
2022-08-03T01:58:55.046Z,23.90
2022-08-03T02:01:27.834Z,24.00
2022-08-03T02:04:26.854Z,24.00
2022-08-03T02:07:01.813Z,23.90
2022-08-03T02:09:35.925Z,24.00
2022-08-03T02:12:12.765Z,24.00
2022-08-03T02:15:05.072Z,24.00
2022-08-03T02:17:40.326Z,24.00
2022-08-03T02:20:12.487Z,23.90
2022-08-03T02:22:44.463Z,23.90
2022-08-03T02:25:14.082Z,23.80
2022-08-03T02:28:05.097Z,23.80
2022-08-03T02:30:41.185Z,23.60
2022-08-03T02:33:19.148Z,23.50
2022-08-03T02:35:51.452Z,23.50
2022-08-03T02:38:23.886Z,23.50
2022-08-03T02:41:23.255Z,23.60
2022-08-03T02:44:07.023Z,23.70
2022-08-03T02:46:41.958Z,23.70
2022-08-03T02:49:41.186Z,23.70
2022-08-03T02:52:15.868Z,23.60
2022-08-03T02:54:47.703Z,23.50
2022-08-03T02:57:16.750Z,23.40
2022-08-03T02:59:45.924Z,23.40
2022-08-03T03:02:17.517Z,23.50
2022-08-03T03:05:50.549Z,23.40
2022-08-03T03:07:52.099Z,23.40
2022-08-03T03:10:34.189Z,23.40
2022-08-03T03:13:04.954Z,23.40
2022-08-03T03:15:38.516Z,23.40
2022-08-03T03:18:10.402Z,23.30
2022-08-03T03:20:41.612Z,23.30
2022-08-03T03:23:13.690Z,23.30
2022-08-03T03:25:42.470Z,23.30
2022-08-03T03:28:16.708Z,23.10
2022-08-03T03:30:53.197Z,23.00
2022-08-03T03:33:25.893Z,23.00
2022-08-03T03:36:01.674Z,22.90
2022-08-03T03:38:31.234Z,22.80
2022-08-03T03:41:20.324Z,22.80
2022-08-03T03:43:51.074Z,22.90
2022-08-03T03:46:20.333Z,22.90
2022-08-03T03:48:51.687Z,23.00
2022-08-03T03:51:22.574Z,23.00
2022-08-03T03:54:14.353Z,22.90
2022-08-03T03:56:43.838Z,22.80
2022-08-03T03:59:15.686Z,22.70
2022-08-03T04:01:45.425Z,22.70
2022-08-03T04:04:33.346Z,22.80
2022-08-03T04:07:21.133Z,22.90
2022-08-03T04:10:14.383Z,23.00
2022-08-03T04:12:50.018Z,23.10
2022-08-03T04:15:24.405Z,23.10
2022-08-03T04:18:00.214Z,23.10
2022-08-03T04:20:41.141Z,23.10
2022-08-03T04:23:15.417Z,23.10
2022-08-03T04:25:47.054Z,23.10
2022-08-03T04:28:30.980Z,23.00
2022-08-03T04:31:01.815Z,22.90
2022-08-03T04:33:46.693Z,22.90
2022-08-03T04:36:25.494Z,22.90
2022-08-03T04:39:17.813Z,22.90
2022-08-03T04:42:06.936Z,23.00
2022-08-03T04:44:45.710Z,23.00
2022-08-03T04:47:13.221Z,23.00
2022-08-03T04:49:44.637Z,23.10
2022-08-03T04:52:14.752Z,23.10
2022-08-03T04:54:50.507Z,23.20
2022-08-03T04:57:22.088Z,23.10
2022-08-03T05:00:02.094Z,23.10
2022-08-03T05:02:35.636Z,23.20
2022-08-03T05:05:07.188Z,23.20
2022-08-03T05:07:39.125Z,23.10
2022-08-03T05:10:14.660Z,23.10
2022-08-03T05:12:59.592Z,23.10
2022-08-03T05:15:30.411Z,23.00
2022-08-03T05:17:59.929Z,22.90
2022-08-03T05:20:27.860Z,22.80
2022-08-03T05:22:58.374Z,22.80
2022-08-03T05:25:29.498Z,22.90
2022-08-03T05:28:00.354Z,22.80
2022-08-03T05:30:33.850Z,22.80
2022-08-03T05:33:03.949Z,22.80
2022-08-03T05:36:02.361Z,22.80
2022-08-03T05:38:34.913Z,22.70
2022-08-03T05:41:23.502Z,22.80
2022-08-03T05:43:57.780Z,22.80
2022-08-03T05:46:30.429Z,22.80
2022-08-03T05:48:59.030Z,22.90
2022-08-03T05:52:00.014Z,22.70
2022-08-03T05:54:56.624Z,22.80
2022-08-03T05:57:28.854Z,22.80
2022-08-03T05:59:58.986Z,22.70
2022-08-03T06:02:30.105Z,22.80
2022-08-03T06:04:59.877Z,22.90
2022-08-03T06:07:31.157Z,22.90
2022-08-03T06:10:36.658Z,23.00
2022-08-03T06:12:57.445Z,23.10
2022-08-03T06:15:26.880Z,23.10
2022-08-03T06:17:58.820Z,23.10
2022-08-03T06:20:30.933Z,23.20
2022-08-03T06:23:01.177Z,23.10
2022-08-03T06:25:31.051Z,23.00
2022-08-03T06:27:59.970Z,23.10
2022-08-03T06:30:31.297Z,23.20
2022-08-03T06:32:59.995Z,23.20
2022-08-03T06:35:32.105Z,23.30
2022-08-03T06:38:01.007Z,23.30
2022-08-03T06:40:31.308Z,23.40
2022-08-03T06:43:03.643Z,23.40
2022-08-03T06:45:33.485Z,23.50
2022-08-03T06:48:16.126Z,23.60
2022-08-03T06:50:44.586Z,23.60
2022-08-03T06:53:18.219Z,23.70
2022-08-03T06:55:55.994Z,23.80
2022-08-03T06:58:27.029Z,23.90
2022-08-03T07:00:57.688Z,23.90
2022-08-03T07:03:28.348Z,23.90
2022-08-03T07:05:59.425Z,23.80
2022-08-03T07:08:33.584Z,23.80
2022-08-03T07:11:04.660Z,23.90
2022-08-03T07:13:32.226Z,24.00
2022-08-03T07:16:01.858Z,24.00
2022-08-03T07:18:30.972Z,24.10
2022-08-03T07:21:02.939Z,24.10
2022-08-03T07:23:31.039Z,24.10
2022-08-03T07:26:02.025Z,24.20
2022-08-03T07:28:30.163Z,24.30
2022-08-03T07:31:00.485Z,24.30
2022-08-03T07:33:31.314Z,24.40
2022-08-03T07:36:00.878Z,24.50
2022-08-03T07:38:32.228Z,24.60
2022-08-03T07:41:01.530Z,24.60
2022-08-03T07:43:31.555Z,24.70
2022-08-03T07:46:01.455Z,24.80
2022-08-03T07:48:32.640Z,24.80
2022-08-03T07:51:06.674Z,24.90
2022-08-03T07:53:37.888Z,25.00
2022-08-03T07:56:19.488Z,25.00
2022-08-03T07:58:50.580Z,25.20
2022-08-03T08:01:22.369Z,25.20
2022-08-03T08:03:53.871Z,25.30
2022-08-03T08:06:27.397Z,25.30
2022-08-03T08:09:04.458Z,25.40
2022-08-03T08:11:35.831Z,25.50
2022-08-03T08:14:11.658Z,25.60
2022-08-03T08:16:40.422Z,25.60
2022-08-03T08:19:12.857Z,25.60
2022-08-03T08:21:53.151Z,25.70
2022-08-03T08:24:36.492Z,25.80
2022-08-03T08:27:04.918Z,25.90
2022-08-03T08:29:35.628Z,26.00
2022-08-03T08:32:19.889Z,26.10
2022-08-03T08:34:49.634Z,26.20
2022-08-03T08:37:24.424Z,26.20
2022-08-03T08:39:55.881Z,26.20
2022-08-03T08:42:27.635Z,26.30
2022-08-03T08:44:58.830Z,26.30
2022-08-03T08:47:29.586Z,26.40
2022-08-03T08:50:27.137Z,26.50
2022-08-03T08:53:01.038Z,26.50
2022-08-03T08:55:29.006Z,26.60
2022-08-03T08:58:04.600Z,26.60
2022-08-03T09:00:35.678Z,26.60
2022-08-03T09:03:04.887Z,26.70
2022-08-03T09:05:54.962Z,26.70
2022-08-03T09:08:25.808Z,26.90
2022-08-03T09:10:55.452Z,26.90
2022-08-03T09:13:23.022Z,27.00
2022-08-03T09:16:13.613Z,26.90
2022-08-03T09:18:46.938Z,27.00
2022-08-03T09:21:33.282Z,26.90
2022-08-03T09:24:16.436Z,27.00
2022-08-03T09:26:56.887Z,27.10
2022-08-03T09:29:28.347Z,27.20
2022-08-03T09:32:08.105Z,27.20
2022-08-03T09:34:37.994Z,27.30
2022-08-03T09:37:20.607Z,27.30
2022-08-03T09:40:09.850Z,27.30
2022-08-03T09:42:57.689Z,27.30
2022-08-03T09:45:32.710Z,27.40
2022-08-03T09:48:22.513Z,27.50
2022-08-03T09:51:13.043Z,27.50
2022-08-03T09:53:59.792Z,27.60
2022-08-03T09:56:49.551Z,27.60
2022-08-03T09:59:35.440Z,27.60
2022-08-03T10:02:24.606Z,27.60
2022-08-03T10:04:54.658Z,27.60
2022-08-03T10:07:27.300Z,27.70
2022-08-03T10:10:30.425Z,27.70
2022-08-03T10:12:56.302Z,27.80
2022-08-03T10:16:23.841Z,27.90
2022-08-03T10:18:17.763Z,27.90
2022-08-03T10:21:09.386Z,27.90
2022-08-03T10:23:41.201Z,27.90
2022-08-03T10:26:18.497Z,28.00
2022-08-03T10:28:50.201Z,28.00
2022-08-03T10:31:24.544Z,28.00
2022-08-03T10:34:16.862Z,28.10
2022-08-03T10:36:47.758Z,28.10
2022-08-03T10:39:22.599Z,28.10
2022-08-03T10:42:02.628Z,28.20
2022-08-03T10:44:52.257Z,28.20
2022-08-03T10:47:22.154Z,28.30
2022-08-03T10:49:53.975Z,28.30
2022-08-03T10:52:31.854Z,28.30
2022-08-03T10:55:20.694Z,28.40
2022-08-03T10:57:58.855Z,28.40
2022-08-03T11:00:30.765Z,28.50
2022-08-03T11:03:16.385Z,28.50
2022-08-03T11:05:51.719Z,28.60
2022-08-03T11:08:36.748Z,28.60
2022-08-03T11:11:29.055Z,28.70
2022-08-03T11:14:19.238Z,28.70
2022-08-03T11:16:50.062Z,28.80
2022-08-03T11:19:28.128Z,28.90
2022-08-03T11:21:59.320Z,29.00
2022-08-03T11:24:59.846Z,29.00
2022-08-03T11:27:32.682Z,29.10
2022-08-03T11:30:14.381Z,29.10
2022-08-03T11:32:57.670Z,29.20
2022-08-03T11:35:31.975Z,29.20
2022-08-03T11:38:05.445Z,29.30
2022-08-03T11:40:53.916Z,29.30
2022-08-03T11:43:28.994Z,29.40
2022-08-03T11:46:28.702Z,29.40
2022-08-03T11:49:17.048Z,29.50
2022-08-03T11:51:53.235Z,29.60
2022-08-03T11:54:23.246Z,29.70
2022-08-03T11:56:53.683Z,29.80
2022-08-03T11:59:34.729Z,29.80
2022-08-03T12:02:20.539Z,29.90
2022-08-03T12:05:03.390Z,30.00
2022-08-03T12:08:03.032Z,30.20
2022-08-03T12:10:24.177Z,30.30
2022-08-03T12:12:59.614Z,30.40
2022-08-03T12:15:30.991Z,30.50
2022-08-03T12:18:00.368Z,30.60
2022-08-03T12:20:35.211Z,30.60
2022-08-03T12:23:09.917Z,30.50
2022-08-03T12:25:41.904Z,30.70
2022-08-03T12:28:36.204Z,30.70
2022-08-03T12:31:07.880Z,30.80
2022-08-03T12:34:10.491Z,31.00
2022-08-03T12:36:49.768Z,30.90
2022-08-03T12:39:25.905Z,31.10
2022-08-03T12:41:56.310Z,31.10
2022-08-03T12:44:35.252Z,31.30
2022-08-03T12:47:09.358Z,31.50
2022-08-03T12:49:59.850Z,31.70
2022-08-03T12:52:45.785Z,32.00
2022-08-03T12:55:22.106Z,32.10
2022-08-03T12:57:53.602Z,32.30
2022-08-03T13:00:29.051Z,32.60
2022-08-03T13:03:38.252Z,32.90
2022-08-03T13:05:55.799Z,33.20
2022-08-03T13:08:28.171Z,33.60
2022-08-03T13:10:58.108Z,34.20
2022-08-03T13:13:43.596Z,34.80
2022-08-03T13:16:18.727Z,36.20
2022-08-03T13:18:50.007Z,37.60
2022-08-03T13:21:19.389Z,38.90
2022-08-03T13:23:49.028Z,39.80
2022-08-03T13:26:16.806Z,40.80
2022-08-03T13:28:48.763Z,42.00
2022-08-03T13:31:17.736Z,42.80
2022-08-03T13:33:50.683Z,42.50
2022-08-03T13:36:20.878Z,43.50
2022-08-03T13:38:50.776Z,44.00
2022-08-03T13:41:31.077Z,44.80
2022-08-03T13:44:26.175Z,45.40
2022-08-03T13:46:48.677Z,44.70
2022-08-03T13:49:20.041Z,44.80
2022-08-03T13:51:48.207Z,44.40
2022-08-03T13:54:18.846Z,43.70
2022-08-03T13:58:01.450Z,43.60
2022-08-03T13:59:47.566Z,43.30
2022-08-03T14:02:17.179Z,42.90
2022-08-03T14:04:45.543Z,42.50
2022-08-03T14:07:15.777Z,42.30
2022-08-03T14:09:45.839Z,41.80
2022-08-03T14:12:14.471Z,41.80
2022-08-03T14:14:42.981Z,41.40
2022-08-03T14:17:16.330Z,41.20
2022-08-03T14:19:53.590Z,41.00
2022-08-03T14:22:24.008Z,40.60
2022-08-03T14:24:54.418Z,40.10
2022-08-03T14:27:23.780Z,39.60
2022-08-03T14:29:55.064Z,39.40
2022-08-03T14:32:30.813Z,39.50
2022-08-03T14:34:59.580Z,39.20
2022-08-03T14:37:27.638Z,39.20
2022-08-03T14:40:00.484Z,39.00
2022-08-03T14:42:30.927Z,39.10
2022-08-03T14:45:04.643Z,39.20
2022-08-03T14:50:10.462Z,39.20
2022-08-03T14:50:41.970Z,39.50
2022-08-03T14:53:14.360Z,39.60
2022-08-03T14:55:49.895Z,39.20
2022-08-03T14:58:24.029Z,38.40
2022-08-03T15:00:59.095Z,37.80
2022-08-03T15:03:27.676Z,37.60
2022-08-03T15:06:01.049Z,37.70
2022-08-03T15:08:31.142Z,37.70
2022-08-03T15:10:58.625Z,37.80
2022-08-03T15:13:28.936Z,38.00
2022-08-03T15:15:58.228Z,38.40
2022-08-03T15:18:31.532Z,38.40
2022-08-03T15:21:03.010Z,38.50
2022-08-03T15:23:30.606Z,38.20
2022-08-03T15:26:32.873Z,38.20
2022-08-03T15:28:55.946Z,38.10
2022-08-03T15:31:24.749Z,38.00
2022-08-03T15:33:53.917Z,38.10
2022-08-03T15:36:23.090Z,38.30
2022-08-03T15:38:51.764Z,38.40
2022-08-03T15:41:22.006Z,38.60
2022-08-03T15:43:49.232Z,38.40
2022-08-03T15:46:29.207Z,38.40
2022-08-03T15:49:02.189Z,38.50
2022-08-03T15:51:32.414Z,38.60
2022-08-03T15:54:01.948Z,38.40
2022-08-03T15:56:33.016Z,38.40
2022-08-03T15:59:12.462Z,38.40
2022-08-03T16:01:44.391Z,38.40
2022-08-03T16:04:13.262Z,38.30
2022-08-03T16:06:40.929Z,37.90
2022-08-03T16:09:23.591Z,37.80
2022-08-03T16:12:00.429Z,37.60
2022-08-03T16:14:32.687Z,37.50
2022-08-03T16:17:04.366Z,37.40
2022-08-03T16:19:31.712Z,37.10
2022-08-03T16:22:00.994Z,36.90
2022-08-03T16:24:29.704Z,36.60
2022-08-03T16:26:58.036Z,36.40
2022-08-03T16:29:29.518Z,36.30
2022-08-03T16:31:58.286Z,36.00
2022-08-03T16:34:29.041Z,35.90
2022-08-03T16:37:11.741Z,36.00
2022-08-03T16:39:53.059Z,35.90
2022-08-03T16:42:20.927Z,35.70
2022-08-03T16:44:51.035Z,35.60
2022-08-03T16:47:21.942Z,35.70
2022-08-03T16:49:56.434Z,35.70
2022-08-03T16:52:26.242Z,35.70
2022-08-03T16:54:57.181Z,35.70
2022-08-03T16:57:55.886Z,35.60
2022-08-03T17:00:34.073Z,35.60
2022-08-03T17:03:18.823Z,35.50
2022-08-03T17:05:53.375Z,35.40
2022-08-03T17:08:32.510Z,35.20
2022-08-03T17:10:59.764Z,35.00
2022-08-03T17:13:39.800Z,34.60
2022-08-03T17:16:15.455Z,34.40
2022-08-03T17:18:56.707Z,34.20
2022-08-03T17:21:37.178Z,34.10
2022-08-03T17:24:15.466Z,34.00
2022-08-03T17:26:56.033Z,33.90
2022-08-03T17:29:29.929Z,33.90
2022-08-03T17:32:00.142Z,33.90
2022-08-03T17:34:27.968Z,33.80
2022-08-03T17:37:05.197Z,33.70
2022-08-03T17:42:31.883Z,33.40
2022-08-03T17:48:01.169Z,33.10
2022-08-03T17:50:41.801Z,33.00
2022-08-03T17:53:26.944Z,32.90
2022-08-03T17:56:40.422Z,32.90
2022-08-03T17:59:50.593Z,32.80
2022-08-03T18:03:26.943Z,32.70
2022-08-03T18:06:12.452Z,32.60
2022-08-03T18:08:51.218Z,32.40
2022-08-03T18:11:35.406Z,32.30
2022-08-03T18:14:57.672Z,32.30
2022-08-03T18:17:55.736Z,32.10
2022-08-03T18:20:31.317Z,32.00
2022-08-03T18:23:04.669Z,31.90
2022-08-03T18:25:44.928Z,31.80
2022-08-03T18:28:23.318Z,31.70
2022-08-03T18:30:55.719Z,31.70
2022-08-03T18:34:18.377Z,31.60
2022-08-03T18:36:30.390Z,31.60
2022-08-03T18:39:03.658Z,31.50
2022-08-03T18:44:38.108Z,31.40
2022-08-03T18:47:50.641Z,31.30
2022-08-03T18:50:37.010Z,31.20
2022-08-03T18:54:04.140Z,31.10
2022-08-03T18:56:55.134Z,30.90
2022-08-03T19:00:05.860Z,30.90
2022-08-03T19:03:03.841Z,30.70
2022-08-03T19:06:02.363Z,30.50
2022-08-03T19:08:56.110Z,30.20
2022-08-03T19:12:13.303Z,30.10
2022-08-03T19:14:56.024Z,30.10
2022-08-03T19:17:29.379Z,30.10
2022-08-03T19:20:02.474Z,30.20
2022-08-03T19:22:36.575Z,30.20
2022-08-03T19:25:12.161Z,30.20
2022-08-03T19:27:43.511Z,30.30
2022-08-03T19:30:35.758Z,30.30
2022-08-03T19:33:13.783Z,30.30
2022-08-03T19:36:01.476Z,30.30
2022-08-03T19:38:32.226Z,30.20
2022-08-03T19:41:04.449Z,30.20
2022-08-03T19:43:53.621Z,30.20
2022-08-03T19:46:32.103Z,30.20
2022-08-03T19:49:15.797Z,30.20
2022-08-03T19:52:01.713Z,30.20
2022-08-03T19:54:55.309Z,30.20
2022-08-03T19:57:31.397Z,30.20
2022-08-03T20:00:03.340Z,30.10
2022-08-03T20:02:36.357Z,30.20
2022-08-03T20:05:15.035Z,30.10
2022-08-03T20:07:58.968Z,30.10
2022-08-03T20:10:31.531Z,30.00
2022-08-03T20:13:02.687Z,30.00
2022-08-03T20:15:33.149Z,30.00
2022-08-03T20:18:16.983Z,29.90
2022-08-03T20:20:50.023Z,29.90
2022-08-03T20:23:22.734Z,29.80
2022-08-03T20:25:58.391Z,29.70
2022-08-03T20:28:59.559Z,29.60
2022-08-03T20:31:38.778Z,29.60
2022-08-03T20:34:27.711Z,29.50
2022-08-03T20:36:58.222Z,29.50
2022-08-03T20:39:29.168Z,29.40
2022-08-03T20:42:02.108Z,29.40
2022-08-03T20:44:32.512Z,29.40
2022-08-03T20:47:05.462Z,29.30
2022-08-03T20:49:46.075Z,29.30
2022-08-03T20:52:18.954Z,29.20
2022-08-03T20:54:49.139Z,29.20
2022-08-03T20:57:17.284Z,29.10
2022-08-03T20:59:51.173Z,29.10
2022-08-03T21:02:29.959Z,29.00
2022-08-03T21:05:47.601Z,29.00
2022-08-03T21:08:23.689Z,29.00
2022-08-03T21:10:55.907Z,28.90
2022-08-03T21:12:55.020Z,33.30
2022-08-03T21:12:58.870Z,31.50
2022-08-03T21:13:39.522Z,29.00
2022-08-03T21:16:14.188Z,29.00
2022-08-03T21:18:56.770Z,29.00
2022-08-03T21:21:33.599Z,28.90
2022-08-03T21:24:04.587Z,28.90
2022-08-03T21:26:36.127Z,28.90
2022-08-03T21:29:06.071Z,28.90
2022-08-03T21:31:36.271Z,28.80
2022-08-03T21:34:05.692Z,28.80
2022-08-03T21:36:40.892Z,28.80
2022-08-03T21:39:10.258Z,28.90
2022-08-03T21:41:43.510Z,28.90
2022-08-03T21:44:14.425Z,28.90
2022-08-03T21:46:47.722Z,28.90
2022-08-03T21:50:05.806Z,28.90
2022-08-03T21:52:14.974Z,28.80
2022-08-03T21:54:48.898Z,28.70
2022-08-03T21:57:26.662Z,28.60
2022-08-03T22:00:16.836Z,28.60
2022-08-03T22:03:00.493Z,28.50
2022-08-03T22:05:45.768Z,28.50
2022-08-03T22:08:19.746Z,28.40
2022-08-03T22:10:50.238Z,28.40
2022-08-03T22:13:43.842Z,28.40
2022-08-03T22:16:14.730Z,28.30
2022-08-03T22:18:47.673Z,28.30
2022-08-03T22:21:27.731Z,28.20
2022-08-03T22:24:05.730Z,28.20
2022-08-03T22:26:38.317Z,28.10
2022-08-03T22:29:14.593Z,28.00
2022-08-03T22:31:58.640Z,28.00
2022-08-03T22:34:28.428Z,27.90
2022-08-03T22:37:02.147Z,27.90
2022-08-03T22:39:30.716Z,27.80
2022-08-03T22:42:04.933Z,27.90
2022-08-03T22:44:35.188Z,27.90
2022-08-03T22:47:04.895Z,27.90
2022-08-03T22:49:41.792Z,27.90
2022-08-03T22:52:15.640Z,27.90
2022-08-03T22:54:43.362Z,27.90
2022-08-03T22:57:13.255Z,27.90
2022-08-03T22:59:42.211Z,27.90
2022-08-03T23:02:30.675Z,27.80
2022-08-03T23:05:59.593Z,27.80
2022-08-03T23:08:22.331Z,27.70
2022-08-03T23:10:56.451Z,27.60
2022-08-03T23:13:29.254Z,27.60
2022-08-03T23:16:02.755Z,27.50
2022-08-03T23:18:40.562Z,27.40
2022-08-03T23:21:11.617Z,27.00
2022-08-03T23:23:53.805Z,27.00
2022-08-03T23:26:36.982Z,26.90
2022-08-03T23:29:06.825Z,26.90
2022-08-03T23:31:43.154Z,27.00
2022-08-03T23:34:34.914Z,26.90
2022-08-03T23:37:10.414Z,27.00
2022-08-03T23:39:42.560Z,27.00
2022-08-03T23:42:13.622Z,27.00
2022-08-03T23:44:44.630Z,27.00
2022-08-03T23:47:17.926Z,27.00
2022-08-03T23:49:46.745Z,27.00
2022-08-03T23:52:51.347Z,27.10
2022-08-03T23:55:57.032Z,27.10
2022-08-03T23:59:03.419Z,27.20
